Alpine Link — V7SZ7 — position and weather

sailwx.info

Track history (hours):
 
Tides and Currents Weather Stations Pressure Air Temp Water Temp Dewpoint Dewpoint Depression Visibility Wind Speed Wind Dir Waves Ship Positions

Alpine Link

Last reported at 2014-Oct-28 14:33 UTC. Time now 2014-Nov-01 01:17 UTC.
Position N 45°01' E 036°36'.

Length 183 m; draft 7.5 m.

Type: Tanker. MMSI: 538003758.

Date/timePositionNaut miles runAvg speedWind from/ knotsBaromVisibWave heightAir tempDewpointWater temp
2014-Oct-28 14:33N 45°01' E 036°36'2 0.1
2014-Oct-27 08:21N 44°60' E 036°34'0 0.1
2014-Oct-27 07:33N 44°60' E 036°34'0 0.0
2014-Oct-27 06:33N 44°60' E 036°34'0 0.0
2014-Oct-27 05:30N 44°60' E 036°34'0 0.0
2014-Oct-27 04:33N 44°60' E 036°34'0 0.0
2014-Oct-27 03:33N 44°60' E 036°34'0 0.0
2014-Oct-27 02:27N 44°60' E 036°34'0 0.0
2014-Oct-27 00:15N 44°60' E 036°34'  
2014-Oct-24 10:32N 41°28' E 029°39'1313.3
2014-Oct-24 09:33N 41°22' E 029°24'3210.6
2014-Oct-24 06:33N 40°56' E 028°60'8 7.7
2014-Oct-24 05:33N 40°48' E 029°01'1 0.6
2014-Oct-24 04:17N 40°48' E 029°01'2 2.4
2014-Oct-24 03:33N 40°47' E 029°03'1 1.3
2014-Oct-24 02:30N 40°48' E 029°05'3 1.3
2014-Oct-24 00:33N 40°48' E 029°01'5 3.9
2014-Oct-23 23:19N 40°50' E 028°55'1 0.8
2014-Oct-23 22:25N 40°50' E 028°54'9 9.7
2014-Oct-23 21:30N 40°49' E 028°43'223 8.6
2014-Oct-22 19:32N 37°56' E 025°41'1211.8
2014-Oct-22 18:30N 37°45' E 025°46'1313.7
2014-Oct-22 17:33N 37°33' E 025°52'1414.0
2014-Oct-22 16:34N 37°20' E 025°59'1413.9
2014-Oct-22 15:34N 37°08' E 026°07'1414.0
2014-Oct-22 14:33N 36°55' E 026°15'1413.7
2014-Oct-22 13:33N 36°45' E 026°27'1413.8
2014-Oct-22 12:34N 36°34' E 026°37'1614.2
2014-Oct-22 11:25N 36°22' E 026°51'  
2014-Oct-20 03:12N 34°09' E 032°47'1 1.3
2014-Oct-20 02:24N 34°09' E 032°48'1 1.2
2014-Oct-20 01:12N 34°10' E 032°50'3 1.1
2014-Oct-19 22:33N 34°10' E 032°54'2 1.1
2014-Oct-19 20:21N 34°10' E 032°57'5 1.7
2014-Oct-19 17:15N 34°10' E 033°03'1 1.6
2014-Oct-19 16:27N 34°09' E 033°05'1010.9
2014-Oct-19 15:33N 34°18' E 033°09'6 5.8
2014-Oct-19 14:32N 34°23' E 033°13'2 1.7
2014-Oct-19 13:20N 34°23' E 033°15'1 1.7
2014-Oct-19 12:32N 34°23' E 033°17'2 1.7
2014-Oct-19 11:29N 34°22' E 033°19'2 1.9
2014-Oct-19 10:20N 34°22' E 033°22'2 2.2
2014-Oct-19 09:29N 34°22' E 033°24'4 4.0
2014-Oct-19 08:33N 34°24' E 033°28'  
Track history (hours):
 
Tides and Currents Weather Stations Pressure Air Temp Water Temp Dewpoint Dewpoint Depression Visibility Wind Speed Wind Dir Waves Ship Positions

Alpine Link

Last reported at 2014-Oct-28 14:33 UTC. Time now 2014-Nov-01 01:18 UTC.
Position N 45°01' E 036°36'.

Length 183 m; draft 7.5 m.

Type: Tanker. MMSI: 538003758.

Date/timePositionNaut miles runAvg speedWind from/ knotsBaromVisibWave heightAir tempDewpointWater temp
2014-Oct-28 14:33N 45°01' E 036°36'2 0.1
2014-Oct-27 08:21N 44°60' E 036°34'0 0.1
2014-Oct-27 07:33N 44°60' E 036°34'0 0.0
2014-Oct-27 06:33N 44°60' E 036°34'0 0.0
2014-Oct-27 05:30N 44°60' E 036°34'0 0.0
2014-Oct-27 04:33N 44°60' E 036°34'0 0.0
2014-Oct-27 03:33N 44°60' E 036°34'0 0.0
2014-Oct-27 02:27N 44°60' E 036°34'0 0.0
2014-Oct-27 00:15N 44°60' E 036°34'  
2014-Oct-24 10:32N 41°28' E 029°39'1313.3
2014-Oct-24 09:33N 41°22' E 029°24'3210.6
2014-Oct-24 06:33N 40°56' E 028°60'8 7.7
2014-Oct-24 05:33N 40°48' E 029°01'1 0.6
2014-Oct-24 04:17N 40°48' E 029°01'2 2.4
2014-Oct-24 03:33N 40°47' E 029°03'1 1.3
2014-Oct-24 02:30N 40°48' E 029°05'3 1.3
2014-Oct-24 00:33N 40°48' E 029°01'5 3.9
2014-Oct-23 23:19N 40°50' E 028°55'1 0.8
2014-Oct-23 22:25N 40°50' E 028°54'9 9.7
2014-Oct-23 21:30N 40°49' E 028°43'223 8.6
2014-Oct-22 19:32N 37°56' E 025°41'1211.8
2014-Oct-22 18:30N 37°45' E 025°46'1313.7
2014-Oct-22 17:33N 37°33' E 025°52'1414.0
2014-Oct-22 16:34N 37°20' E 025°59'1413.9
2014-Oct-22 15:34N 37°08' E 026°07'1414.0
2014-Oct-22 14:33N 36°55' E 026°15'1413.7
2014-Oct-22 13:33N 36°45' E 026°27'1413.8
2014-Oct-22 12:34N 36°34' E 026°37'1614.2
2014-Oct-22 11:25N 36°22' E 026°51'  
2014-Oct-20 03:12N 34°09' E 032°47'1 1.3
2014-Oct-20 02:24N 34°09' E 032°48'1 1.2
2014-Oct-20 01:12N 34°10' E 032°50'3 1.1
2014-Oct-19 22:33N 34°10' E 032°54'2 1.1
2014-Oct-19 20:21N 34°10' E 032°57'5 1.7
2014-Oct-19 17:15N 34°10' E 033°03'1 1.6
2014-Oct-19 16:27N 34°09' E 033°05'1010.9
2014-Oct-19 15:33N 34°18' E 033°09'6 5.8
2014-Oct-19 14:32N 34°23' E 033°13'2 1.7
2014-Oct-19 13:20N 34°23' E 033°15'1 1.7
2014-Oct-19 12:32N 34°23' E 033°17'2 1.7
2014-Oct-19 11:29N 34°22' E 033°19'2 1.9
2014-Oct-19 10:20N 34°22' E 033°22'2 2.2
2014-Oct-19 09:29N 34°22' E 033°24'4 4.0
2014-Oct-19 08:33N 34°24' E 033°28'  

Dump ship's entire track history